createdAt,value
2023-03-26T00:01:12.955Z,34.2
2023-03-26T00:05:24.543Z,44.7
2023-03-26T00:09:36.089Z,30.3
2023-03-26T00:11:44.908Z,25.9
2023-03-26T00:13:50.744Z,22.8
2023-03-26T00:26:28.539Z,11.3
2023-03-26T00:28:34.329Z,23.8
2023-03-26T00:32:45.929Z,36.2
2023-03-26T00:34:51.655Z,19.3
2023-03-26T00:36:57.472Z,29.4
2023-03-26T00:39:03.283Z,33.8
2023-03-26T00:43:17.903Z,40.4
2023-03-26T00:45:23.667Z,47.6
2023-03-26T00:46:28.093Z,39.5
2023-03-26T00:48:44.333Z,14.5
2023-03-26T00:50:39.661Z,30.5
2023-03-26T00:52:45.631Z,18.7
2023-03-26T00:54:54.294Z,30.2
2023-03-26T00:57:00.085Z,49.8
2023-03-26T01:03:27.438Z,30.1
2023-03-26T01:05:23.220Z,19.2
2023-03-26T01:07:28.924Z,27
2023-03-26T01:09:37.777Z,20.4
2023-03-26T01:11:43.571Z,26.2
2023-03-26T01:13:49.309Z,16.7
2023-03-26T01:15:55.244Z,20.9
2023-03-26T01:18:00.964Z,34.5
2023-03-26T01:20:06.682Z,32.5
2023-03-26T01:32:44.571Z,26.3
2023-03-26T01:48:32.404Z,30.2
2023-03-26T01:50:38.160Z,20.8
2023-03-26T01:52:47.017Z,32
2023-03-26T01:59:04.355Z,39.1
2023-03-26T02:01:10.757Z,51
2023-03-26T02:07:31.196Z,25.8
2023-03-26T02:09:36.957Z,37.9
2023-03-26T02:11:42.698Z,22.8
2023-03-26T02:26:26.235Z,27.9
2023-03-26T02:28:31.999Z,43
2023-03-26T02:30:37.768Z,19.3
2023-03-26T02:36:58.173Z,19.3
2023-03-26T02:39:03.885Z,30.5
2023-03-26T02:41:09.691Z,31.6
2023-03-26T02:43:33.711Z,52.2
2023-03-26T02:49:54.098Z,24.4
2023-03-26T02:51:59.840Z,25.3
2023-03-26T02:54:05.652Z,37
2023-03-26T02:56:11.422Z,27.5
2023-03-26T02:58:17.180Z,36.1
2023-03-26T03:00:23.040Z,33.2
2023-03-26T03:02:28.865Z,28
2023-03-26T03:04:37.606Z,37
2023-03-26T03:08:49.098Z,44.8
2023-03-26T03:10:54.894Z,17.6
2023-03-26T03:13:00.636Z,26.4
2023-03-26T03:15:06.438Z,25
2023-03-26T03:17:12.204Z,33.5
2023-03-26T03:19:21.041Z,27
2023-03-26T03:21:26.833Z,30.6
2023-03-26T03:23:32.620Z,42.9
2023-03-26T03:25:38.396Z,22.4
2023-03-26T03:27:44.196Z,38.6
2023-03-26T03:31:55.740Z,41.7
2023-03-26T03:36:10.509Z,30.8
2023-03-26T03:38:16.175Z,40.8
2023-03-26T03:39:20.623Z,32.2
2023-03-26T03:41:27.368Z,33.6
2023-03-26T03:43:33.171Z,32.8
2023-03-26T03:45:38.923Z,31.3
2023-03-26T03:47:47.824Z,41.3
2023-03-26T03:49:53.568Z,44.3
2023-03-26T03:51:59.370Z,52
2023-03-26T03:54:05.278Z,44.4
2023-03-26T04:00:22.533Z,36.8
2023-03-26T04:02:31.534Z,35.4
2023-03-26T04:04:37.242Z,51.2
2023-03-26T04:06:42.994Z,61.9
2023-03-26T04:08:48.804Z,44.1
2023-03-26T04:13:00.395Z,21.7
2023-03-26T04:21:26.633Z,34.4
2023-03-26T04:23:32.467Z,25.2
2023-03-26T04:27:44.097Z,31.9
2023-03-26T04:34:06.049Z,45.3
2023-03-26T04:37:16.291Z,45.3
2023-03-26T04:39:22.079Z,41.5
2023-03-26T04:41:27.875Z,66.2
2023-03-26T04:43:33.683Z,36.6
2023-03-26T04:45:42.604Z,46.4
2023-03-26T04:47:48.375Z,24.6
2023-03-26T04:49:54.145Z,39.3
2023-03-26T04:51:59.950Z,34.8
2023-03-26T04:54:05.757Z,32.6
2023-03-26T04:58:17.349Z,47
2023-03-26T05:00:26.230Z,41
2023-03-26T05:02:32.042Z,56.9
2023-03-26T05:04:37.861Z,32.6
2023-03-26T05:08:49.400Z,38.8
2023-03-26T05:19:21.442Z,39.4
2023-03-26T05:23:33.081Z,35.7
2023-03-26T05:27:44.628Z,37.7
2023-03-26T05:29:53.550Z,51.4
2023-03-26T05:31:59.285Z,31.3
2023-03-26T05:34:05.052Z,32.1
2023-03-26T05:35:09.494Z,47.5
2023-03-26T05:37:15.315Z,50.1
2023-03-26T05:39:21.085Z,37.2
2023-03-26T05:41:26.860Z,47.1
2023-03-26T05:43:35.706Z,55.3
2023-03-26T05:45:41.542Z,46.6
2023-03-26T05:47:47.542Z,70.2
2023-03-26T05:49:53.103Z,30.9
2023-03-26T05:51:58.896Z,25.5
2023-03-26T05:54:04.664Z,25
2023-03-26T05:56:10.466Z,49.2
2023-03-26T05:58:19.343Z,31.1
2023-03-26T06:00:25.132Z,51.5
2023-03-26T06:02:30.985Z,39.2
2023-03-26T06:04:36.807Z,59.5
2023-03-26T06:06:42.485Z,27.6
2023-03-26T06:08:48.302Z,58.6
2023-03-26T06:10:54.244Z,52.7
2023-03-26T06:21:26.077Z,70.6
2023-03-26T06:23:31.866Z,60
2023-03-26T06:25:37.661Z,52.2
2023-03-26T06:27:46.511Z,52.2
2023-03-26T06:29:52.304Z,37.4
2023-03-26T06:32:06.198Z,38.9
2023-03-26T06:38:35.236Z,62.5
2023-03-26T06:40:44.089Z,48.3
2023-03-26T06:44:55.638Z,66
2023-03-26T07:01:46.800Z,52.5
2023-03-26T07:05:56.570Z,62.8
2023-03-26T07:08:02.333Z,40.2
2023-03-26T07:10:11.229Z,31.1
2023-03-26T07:12:17.012Z,37.7
2023-03-26T07:14:22.851Z,50.6
2023-03-26T07:16:28.760Z,61.4
2023-03-26T07:18:34.386Z,51.5
2023-03-26T07:20:40.161Z,55.5
2023-03-26T07:22:45.960Z,74
2023-03-26T07:30:10.879Z,65.5
2023-03-26T07:32:18.458Z,37.8
2023-03-26T07:34:22.445Z,58.4
2023-03-26T07:36:28.251Z,23.1
2023-03-26T07:38:37.124Z,48.7
2023-03-26T07:40:42.914Z,47.5
2023-03-26T07:42:48.904Z,62
2023-03-26T07:44:54.530Z,53.2
2023-03-26T07:47:00.317Z,94.4
2023-03-26T07:49:06.086Z,65.3
2023-03-26T07:51:11.911Z,39.6
2023-03-26T07:55:26.564Z,50.1
2023-03-26T08:01:44.015Z,51.8
2023-03-26T08:03:49.836Z,30.8
2023-03-26T08:05:55.572Z,42.7
2023-03-26T08:08:04.457Z,32
2023-03-26T08:10:10.238Z,35.9
2023-03-26T08:12:16.048Z,36.9
2023-03-26T08:14:21.844Z,34.1
2023-03-26T08:16:27.650Z,32.4
2023-03-26T08:18:33.493Z,34
2023-03-26T08:20:39.209Z,24.1
2023-03-26T08:28:04.155Z,22.9
2023-03-26T08:30:09.938Z,20.8
2023-03-26T08:32:15.718Z,41
2023-03-26T08:34:21.511Z,29.1
2023-03-26T08:36:30.341Z,30.4
2023-03-26T08:38:36.132Z,28.3
2023-03-26T08:42:47.759Z,31.7
2023-03-26T08:44:53.505Z,19.6
2023-03-26T08:46:59.279Z,32.2
2023-03-26T08:49:05.091Z,22
2023-03-26T08:51:13.954Z,16.9
2023-03-26T08:53:19.726Z,11.4
2023-03-26T08:55:25.544Z,17.2
2023-03-26T08:57:31.324Z,16.2
2023-03-26T08:59:37.116Z,18.1
2023-03-26T09:03:48.725Z,19.3
2023-03-26T09:05:57.729Z,25.4
2023-03-26T09:08:03.347Z,20.8
2023-03-26T09:12:14.960Z,26.4
2023-03-26T09:14:20.733Z,20.8
2023-03-26T09:16:26.606Z,20
2023-03-26T09:18:32.341Z,35.4
2023-03-26T09:20:41.212Z,30.7
2023-03-26T09:24:52.825Z,34
2023-03-26T09:28:03.052Z,15.9
2023-03-26T09:34:23.561Z,16.8
2023-03-26T09:36:29.370Z,24.8
2023-03-26T09:38:35.160Z,15.7
2023-03-26T09:40:40.983Z,20.5
2023-03-26T09:42:46.780Z,8.1
2023-03-26T09:44:52.582Z,21.2
2023-03-26T09:46:58.396Z,33.5
2023-03-26T09:49:07.280Z,7.9
2023-03-26T09:51:12.994Z,21
2023-03-26T09:53:18.782Z,16.7
2023-03-26T09:55:24.586Z,18.9
2023-03-26T09:57:30.446Z,24.5
2023-03-26T09:59:36.212Z,15.2
2023-03-26T10:01:42.063Z,15.9
2023-03-26T10:03:50.932Z,17.1
2023-03-26T10:08:05.826Z,12.3
2023-03-26T10:12:14.134Z,22.3
2023-03-26T10:14:19.953Z,20
2023-03-26T10:16:25.856Z,14.6
2023-03-26T10:18:34.644Z,18.6
2023-03-26T10:27:24.742Z,13
2023-03-26T10:29:29.275Z,18.8
2023-03-26T10:31:39.727Z,15
2023-03-26T10:33:45.566Z,8.5
2023-03-26T10:35:51.404Z,24.8
2023-03-26T10:37:57.139Z,20.1
2023-03-26T10:40:02.924Z,15.8
2023-03-26T10:42:08.699Z,22.4
2023-03-26T10:44:14.502Z,14.4
2023-03-26T10:46:23.381Z,25.6
2023-03-26T10:52:40.735Z,25.6
2023-03-26T10:56:52.334Z,12.2
2023-03-26T10:58:58.072Z,24.2
2023-03-26T11:01:06.961Z,9.4
2023-03-26T11:03:12.744Z,20.1
2023-03-26T11:07:24.238Z,26.4
2023-03-26T11:09:30.004Z,15.5
2023-03-26T11:11:35.795Z,21.1
2023-03-26T11:13:41.576Z,17.1
2023-03-26T11:15:50.480Z,19.9
2023-03-26T11:17:56.320Z,19.5
2023-03-26T11:20:01.982Z,42.1
2023-03-26T11:21:18.854Z,64.4
2023-03-26T11:25:18.000Z,16.9
2023-03-26T11:27:25.149Z,34.1
2023-03-26T11:29:33.592Z,26.1
2023-03-26T11:31:38.435Z,10.4
2023-03-26T11:33:45.640Z,44.9
2023-03-26T11:37:55.734Z,10.2
2023-03-26T11:40:01.540Z,28.9
2023-03-26T11:42:07.305Z,17.1
2023-03-26T11:44:16.170Z,11.6
2023-03-26T11:46:21.972Z,22
2023-03-26T11:50:33.524Z,12.1
2023-03-26T11:54:45.089Z,27.4
2023-03-26T11:57:04.712Z,24.6
2023-03-26T12:01:05.540Z,16.2
2023-03-26T12:03:11.327Z,13.6
2023-03-26T12:05:17.078Z,18.9
2023-03-26T12:07:22.867Z,28.5
2023-03-26T12:09:28.628Z,21.9
2023-03-26T12:11:35.432Z,15.5
2023-03-26T12:13:43.279Z,26.1
2023-03-26T12:18:59.251Z,9.3
2023-03-26T12:29:31.225Z,13.8
2023-03-26T12:31:37.056Z,10.1
2023-03-26T12:33:42.804Z,20.3
2023-03-26T12:35:48.660Z,27.1
2023-03-26T12:37:55.524Z,16
2023-03-26T12:40:07.035Z,16.9
2023-03-26T12:42:09.041Z,18.8
2023-03-26T12:44:48.857Z,12.3
2023-03-26T12:47:56.337Z,36.2
2023-03-26T12:54:43.871Z,20
2023-03-26T12:58:58.572Z,10.6
2023-03-26T13:01:04.369Z,39.8
2023-03-26T13:03:10.266Z,8.4
2023-03-26T13:05:15.975Z,16.8
2023-03-26T13:07:21.803Z,20.2
2023-03-26T13:09:27.601Z,33
2023-03-26T13:15:47.945Z,19.4
2023-03-26T13:16:52.429Z,32.3
2023-03-26T13:21:03.921Z,14.7
2023-03-26T13:27:24.382Z,17
2023-03-26T13:29:30.165Z,10.2
2023-03-26T13:35:47.753Z,7
2023-03-26T13:40:02.294Z,16.5
2023-03-26T13:44:13.848Z,11.8
2023-03-26T13:46:19.702Z,5.2
2023-03-26T13:48:25.500Z,6.9
2023-03-26T13:50:31.319Z,3.6
2023-03-26T13:52:37.156Z,27.3
2023-03-26T13:56:51.720Z,10.2
2023-03-26T14:01:03.337Z,19.8
2023-03-26T14:03:09.206Z,21.2
2023-03-26T14:05:15.044Z,21.4
2023-03-26T14:07:20.729Z,18.1
2023-03-26T14:09:29.544Z,5.3
2023-03-26T14:11:35.358Z,2.1
2023-03-26T14:13:41.205Z,11.7
2023-03-26T14:16:12.690Z,15.9
2023-03-26T14:18:18.255Z,20.6
2023-03-26T14:20:23.980Z,14.8
2023-03-26T14:22:32.771Z,15.9
2023-03-26T14:33:01.615Z,27.1
2023-03-26T14:35:07.392Z,9.2
2023-03-26T14:37:17.311Z,14.2
2023-03-26T14:39:21.805Z,17.5
2023-03-26T14:41:27.530Z,34.8
2023-03-26T14:43:33.397Z,21.5
2023-03-26T14:45:39.182Z,13
2023-03-26T14:56:12.416Z,23.5
2023-03-26T14:58:17.179Z,8.7
2023-03-26T15:00:23.026Z,14.5
2023-03-26T15:04:34.654Z,14.8
2023-03-26T15:06:43.560Z,10.1
2023-03-26T15:08:49.368Z,16.6
2023-03-26T15:14:05.460Z,7.4
2023-03-26T15:16:11.290Z,11.3
2023-03-26T15:18:17.079Z,18.4
2023-03-26T15:20:26.013Z,15.6
2023-03-26T15:22:31.798Z,15.9
2023-03-26T15:24:37.613Z,14
2023-03-26T15:26:43.426Z,19.5
2023-03-26T15:28:49.227Z,10.3
2023-03-26T15:30:55.181Z,18.9
2023-03-26T15:39:21.371Z,22.4
2023-03-26T15:49:53.479Z,17
2023-03-26T15:51:59.274Z,11.6
2023-03-26T15:54:05.096Z,10
2023-03-26T15:56:10.899Z,13.4
2023-03-26T16:00:22.551Z,17.2
2023-03-26T16:02:28.348Z,16.6
2023-03-26T16:04:37.240Z,8.7
2023-03-26T16:06:42.957Z,9.9
2023-03-26T16:08:48.784Z,6.3
2023-03-26T16:09:53.203Z,12.2
2023-03-26T16:11:58.993Z,10.7
2023-03-26T16:16:10.630Z,11.7
2023-03-26T16:20:25.195Z,21.2
2023-03-26T16:22:31.020Z,6.5
2023-03-26T16:24:36.796Z,11.1
2023-03-26T16:26:42.623Z,6.7
2023-03-26T16:28:48.406Z,13.9
2023-03-26T16:30:54.553Z,20.8
2023-03-26T16:35:10.404Z,8.7
2023-03-26T16:45:39.342Z,11.6
2023-03-26T16:54:05.591Z,22.1
2023-03-26T16:56:11.347Z,6.8
2023-03-26T16:58:17.139Z,5.9
2023-03-26T17:00:22.859Z,10.5
2023-03-26T17:02:31.819Z,8.7
2023-03-26T17:04:37.483Z,13.5
2023-03-26T17:06:43.292Z,20.6
2023-03-26T17:07:47.698Z,2.6
2023-03-26T17:09:53.491Z,10.8
2023-03-26T17:16:13.937Z,13.3
2023-03-26T17:18:19.704Z,3.5
2023-03-26T17:24:36.953Z,11.5
2023-03-26T17:28:50.432Z,14.5
2023-03-26T17:30:57.555Z,16.4
2023-03-26T17:33:03.112Z,21.2
2023-03-26T17:37:14.632Z,11.1
2023-03-26T17:41:26.153Z,11.9
2023-03-26T17:56:09.555Z,7.3
2023-03-26T18:02:29.995Z,21.8
2023-03-26T18:07:07.236Z,18.4
2023-03-26T18:09:12.966Z,16.2
2023-03-26T18:23:59.800Z,7.4
2023-03-26T18:28:10.897Z,9.7
2023-03-26T18:30:16.665Z,5.4
2023-03-26T18:32:22.420Z,15.8
2023-03-26T18:34:28.179Z,9.9
2023-03-26T18:36:34.063Z,8.6
2023-03-26T18:38:41.230Z,16.8
2023-03-26T18:40:45.426Z,7.8
2023-03-26T18:42:54.237Z,8.7
2023-03-26T18:45:01.589Z,5
2023-03-26T18:51:17.195Z,11.4
2023-03-26T18:55:28.699Z,4.6
2023-03-26T18:57:37.526Z,22.7
2023-03-26T18:59:43.277Z,18.9
2023-03-26T19:02:53.472Z,12
2023-03-26T19:04:59.178Z,6.8
2023-03-26T19:07:04.909Z,16.7
2023-03-26T19:09:20.040Z,4.4
2023-03-26T19:11:19.436Z,14.1
2023-03-26T19:13:25.236Z,4.9
2023-03-26T19:15:30.936Z,10.5
2023-03-26T19:17:36.736Z,9.4
2023-03-26T19:26:02.689Z,6.3
2023-03-26T19:32:19.847Z,19.4
2023-03-26T19:34:25.599Z,7.2
2023-03-26T19:36:31.321Z,7.3
2023-03-26T19:40:45.867Z,11.3
2023-03-26T19:42:51.579Z,5.4
2023-03-26T19:44:57.292Z,13.3
2023-03-26T19:47:03.051Z,18.1
2023-03-26T19:49:08.746Z,14.4
2023-03-26T19:51:14.431Z,6.1
2023-03-26T19:53:20.126Z,12.9
2023-03-26T19:57:34.599Z,13.6
2023-03-26T20:00:44.709Z,4
2023-03-26T20:02:50.665Z,22.5
2023-03-26T20:04:56.131Z,13.1
2023-03-26T20:07:01.834Z,8.4
2023-03-26T20:09:10.606Z,14.3
2023-03-26T20:11:16.290Z,14.4
2023-03-26T20:13:21.989Z,27.7
2023-03-26T20:17:33.416Z,27.1
2023-03-26T20:19:39.121Z,11.6
2023-03-26T20:21:44.857Z,7.3
2023-03-26T20:36:33.763Z,15
2023-03-26T20:38:39.377Z,14.7
2023-03-26T20:49:04.930Z,16.5
2023-03-26T20:55:25.073Z,9.5
2023-03-26T20:58:35.178Z,7.4
2023-03-26T21:00:40.910Z,1.8
2023-03-26T21:02:46.650Z,14.1
2023-03-26T21:04:52.243Z,21.6
2023-03-26T21:09:06.711Z,6.3
2023-03-26T21:11:12.428Z,22.7
2023-03-26T21:13:18.108Z,47.7
2023-03-26T21:19:35.192Z,17.8
2023-03-26T21:21:44.031Z,5.7
2023-03-26T21:23:49.647Z,9.8
2023-03-26T21:28:01.031Z,14.3
2023-03-26T21:32:12.409Z,26.5
2023-03-26T21:34:18.115Z,17.2
2023-03-26T21:36:26.859Z,10
2023-03-26T21:38:32.566Z,8.4
2023-03-26T21:46:55.260Z,11.6
2023-03-26T21:49:00.981Z,6.6
2023-03-26T21:51:09.706Z,17.6
2023-03-26T21:55:21.062Z,19.2
2023-03-26T22:02:03.983Z,8.9
2023-03-26T22:06:18.379Z,14
2023-03-26T22:14:41.055Z,13.3
2023-03-26T22:16:46.748Z,8.9
2023-03-26T22:27:18.159Z,2
2023-03-26T22:31:29.494Z,3.7
2023-03-26T22:33:38.178Z,6
2023-03-26T22:35:45.510Z,4.5
2023-03-26T22:37:51.056Z,18.4
2023-03-26T22:39:56.730Z,3.7
2023-03-26T22:42:02.370Z,4
2023-03-26T22:44:19.191Z,1.5
2023-03-26T22:46:13.732Z,18.4
2023-03-26T22:48:22.380Z,10.3
2023-03-26T22:50:28.021Z,10.7
2023-03-26T22:52:33.649Z,8.4
2023-03-26T22:53:38.022Z,7.8
2023-03-26T22:55:43.661Z,4.5
2023-03-26T22:57:49.487Z,9.6
2023-03-26T22:59:54.976Z,4.6
2023-03-26T23:02:03.725Z,10.1
2023-03-26T23:04:09.385Z,7.8
2023-03-26T23:06:15.000Z,6.9
2023-03-26T23:08:20.649Z,10.8
2023-03-26T23:10:26.324Z,14.4
2023-03-26T23:12:31.975Z,6
2023-03-26T23:14:37.614Z,17.3
2023-03-26T23:16:46.367Z,26.8
2023-03-26T23:18:52.031Z,26.5
2023-03-26T23:20:58.038Z,10
2023-03-26T23:25:08.985Z,12.4
2023-03-26T23:27:14.609Z,31.8
2023-03-26T23:29:20.279Z,8.8
2023-03-26T23:31:29.058Z,11.4
2023-03-26T23:33:34.652Z,13.5
2023-03-26T23:35:40.323Z,17.9
2023-03-26T23:37:45.968Z,9.5
2023-03-26T23:39:51.634Z,2.9
2023-03-26T23:41:57.257Z,24.4
2023-03-26T23:44:02.870Z,3.9
2023-03-26T23:46:11.700Z,8.2
2023-03-26T23:48:17.217Z,5.2
2023-03-26T23:50:22.849Z,4.1
2023-03-26T23:51:27.252Z,8.6
2023-03-26T23:57:44.151Z,3.9
2023-03-26T23:59:52.845Z,8.3
